Accueil
METAR-TAF:

METAR-TAF

Aéroports :

Aérodrome de Kasane

Kasane, Botswana

latitude: 17-49S, longitude: 025-09E, altitude: 968 m

Observation

Le bulletin a été fait il y a 13 minutes, à 11:00 UTC
Vent 12 kt de est, variant entre nord-est et sud-est
Température 23°C
Humidité 20%
Pression 1025 hPa
Visibilité 10 km ou plus
pas de nuages en-dessous de 1500 mètres et pas de cumulonimbus.

METAR: FBKE 141100Z 08012KT 040V140 CAVOK 23/M01 Q1025

Heure: 13:13 (11:13 UTC)

Prévision

Le bulletin a été fait il y a 5 heures et 13 minutes, à 06:00 UTC
Prévision valable du 14 à 09 UTC au 14 à 18 UTC
Vent 10 kt de est
Visibilité 10 km ou plus
pas de nuages en-dessous de 1500 mètres et pas de cumulonimbus.

TAF: FBKE 140600Z 1409/1418 09010KT CAVOK

Observations et prévisions météorologiques de plus de 4000 aéroports (messages METAR et TAF).

Les stations disponibles sont représentées par des disques jaunes et rouges sur la carte.

Passer la souris dessus pour voir le nom de la station.

Cliquer dessus pour voir les observations et prévisions météorologiques.

Pour changer de carte: cliquez sur les boutons verts avec une croix noire pour zoomer, sur le bouton vert avec un tiret pour effectuer un zoom arrière, ou sur les flèches vertes pour les cartes adjacentes.


METAR-TAF: